»·PEaware :: N9229P KAPA-KFNL

N9229P :: KAPA-KFNL

FLIGHT INFORMATION

Flight Status: Arrived
Operator: Privately registered:
United States
More flights under this callsign
Pilot: James W. (24810)
Aircraft: PIPER PA-24 COMMANCHE
(PA24)
More flights by this aircraft type
Origin: KAPA Centennial
United States
Destination: KFNL Ft Collins-Loveland Mun
United States
More flights between these airports :: More routes between these airports
Route: BJC IMOMY
File this flight plan on PilotEdge
Remarks: +CW /
Altitude:
(Current/Filed)
8,000ft
Speed:
(Current/Filed)
145kts
Departed: 01-Nov-19 07:00 PM
Arrived: 01-Nov-19 07:33 PM
Distance/Time
Traveled:
53nm/0:33
Distance/Time
To Go:
Arrived

Flight Plot

Page will automatically refresh every two minutes.

Flight plan parsing failed; only flown route is shown


Map Options




Map Legend


Flown Route
Filed Route
Departure Airport
Arrival Airport
Navaid (VOR, NDB)
Fix

Horizontal Profiles

Position Reports

Time Latitude Longitude Heading Altitude Ground
Speed
01-Nov-19 18:40 39.583026 -104.848972 269 5886ft 0kts
01-Nov-19 18:41 39.583026 -104.848972 269 5886ft 0kts
01-Nov-19 18:42 39.583026 -104.848972 269 5886ft 0kts
01-Nov-19 18:43 39.583026 -104.848972 269 5886ft 0kts
01-Nov-19 18:44 39.583026 -104.848972 269 5886ft 0kts
01-Nov-19 18:45 39.583026 -104.848972 269 5886ft 0kts
01-Nov-19 18:46 39.583026 -104.848972 269 5886ft 0kts
01-Nov-19 18:47 39.583026 -104.848972 269 5886ft 0kts
01-Nov-19 18:48 39.583026 -104.848972 269 5886ft 0kts
01-Nov-19 18:49 39.583026 -104.848972 269 5886ft 0kts
01-Nov-19 18:50 39.583026 -104.848984 269 5886ft 0kts
01-Nov-19 18:51 39.583026 -104.848984 269 5886ft 0kts
01-Nov-19 18:52 39.583026 -104.848984 269 5886ft 0kts
01-Nov-19 18:53 39.583026 -104.848984 269 5886ft 0kts
01-Nov-19 18:54 39.583026 -104.848984 269 5886ft 0kts
01-Nov-19 18:55 39.583026 -104.849025 271 5886ft 0kts
01-Nov-19 18:56 39.583785 -104.849778 287 5886ft 3kts
01-Nov-19 18:57 39.584117 -104.850201 279 5886ft 0kts
01-Nov-19 18:58 39.584118 -104.850209 278 5886ft 1kts
01-Nov-19 18:59 39.581198 -104.851301 178 5886ft 68kts
01-Nov-19 19:00 39.547588 -104.849182 177 6246ft 153kts
01-Nov-19 19:01 39.502190 -104.847111 177 6757ft 167kts
01-Nov-19 19:02 39.456288 -104.845012 177 7250ft 168kts
01-Nov-19 19:03 39.412745 -104.843007 177 7742ft 148kts
01-Nov-19 19:04 39.401581 -104.870920 330 7870ft 158kts
01-Nov-19 19:05 39.441917 -104.894459 337 7872ft 162kts
01-Nov-19 19:06 39.483605 -104.916167 338 7871ft 164kts
01-Nov-19 19:07 39.525372 -104.937788 338 7871ft 164kts
01-Nov-19 19:08 39.566925 -104.959287 338 7871ft 164kts
01-Nov-19 19:09 39.608196 -104.980658 338 7871ft 164kts
01-Nov-19 19:10 39.649712 -105.002201 338 7871ft 164kts
01-Nov-19 19:11 39.691199 -105.023710 338 7807ft 166kts
01-Nov-19 19:12 39.732314 -105.045097 338 7807ft 165kts
01-Nov-19 19:13 39.773475 -105.066493 338 7807ft 164kts
01-Nov-19 19:14 39.814515 -105.087817 338 7807ft 164kts
01-Nov-19 19:15 39.857536 -105.082279 16 7807ft 164kts
01-Nov-19 19:16 39.901034 -105.065738 16 7807ft 164kts
01-Nov-19 19:17 39.944340 -105.049206 16 7807ft 164kts
01-Nov-19 19:18 39.987997 -105.032514 16 7807ft 164kts
01-Nov-19 19:19 40.031966 -105.015679 16 7807ft 164kts
01-Nov-19 19:20 40.076228 -104.998712 16 7710ft 168kts
01-Nov-19 19:21 40.121242 -104.981420 16 7551ft 161kts
01-Nov-19 19:22 40.161220 -104.966045 16 7404ft 147kts
01-Nov-19 19:23 40.200636 -104.950885 16 7148ft 139kts
01-Nov-19 19:24 40.234295 -104.938011 16 7150ft 120kts
01-Nov-19 19:25 40.266316 -104.927024 352 7152ft 117kts
01-Nov-19 19:26 40.296882 -104.940562 340 6931ft 106kts
01-Nov-19 19:27 40.323373 -104.952932 340 6681ft 96kts
01-Nov-19 19:28 40.348919 -104.964756 340 6477ft 96kts
01-Nov-19 19:29 40.374971 -104.976861 340 6204ft 96kts
01-Nov-19 19:30 40.399378 -104.988190 340 5977ft 91kts
01-Nov-19 19:31 40.425511 -105.000319 340 5329ft 103kts
01-Nov-19 19:32 40.447466 -105.010457 348 4999ft 37kts
01-Nov-19 19:34 40.449382 -105.009925 119 4997ft 8kts
01-Nov-19 19:35 40.448978 -105.008413 72 5000ft 0kts
01-Nov-19 19:36 40.448978 -105.008413 72 5000ft 0kts

Navigation Log

Ident Type
Flight plan parsing failed, navigation log unavailable